Time;durP1;ratioP1;P1;durP2;ratioP2;P2;SDS_P1;SDS_P2;PMS_P1;PMS_P2;Temp;Humidity;BMP_temperature;BMP_pressure;BME280_temperature;BME280_humidity;BME280_pressure;Samples;Min_cycle;Max_cycle;Signal;HPM_P1;HPM_P2
2022/01/31 00:00:15;;;;;;;9.77;0.98;;;6.10;99.90;;;;;;4894413;29;20052;-61
2022/01/31 00:02:46;;;;;;;23.08;2.65;;;6.10;99.90;;;;;;4893377;29;20060;-58
2022/01/31 00:05:15;;;;;;;10.60;1.85;;;6.10;99.90;;;;;;4894147;29;20505;-59
2022/01/31 00:07:42;;;;;;;11.85;1.40;;;6.20;99.90;;;;;;4894342;29;20052;-58
2022/01/31 00:10:13;;;;;;;9.35;1.33;;;6.30;99.90;;;;;;4894400;29;20052;-63
2022/01/31 00:12:55;;;;;;;12.80;1.70;;;6.20;99.90;;;;;;4894085;29;20044;-65
2022/01/31 00:15:23;;;;;;;15.88;2.47;;;6.30;99.90;;;;;;4894208;29;20644;-66
2022/01/31 00:17:51;;;;;;;9.02;2.15;;;6.20;99.90;;;;;;4893639;29;20532;-64
2022/01/31 00:20:19;;;;;;;13.15;1.70;;;6.20;99.90;;;;;;4894041;29;20045;-66
2022/01/31 00:22:47;;;;;;;10.77;1.42;;;6.20;99.90;;;;;;4892494;29;20424;-65
2022/01/31 00:25:16;;;;;;;9.10;1.52;;;6.10;99.90;;;;;;4893995;29;20530;-65
2022/01/31 00:27:44;;;;;;;15.32;1.73;;;6.10;99.90;;;;;;4893413;29;20072;-61
2022/01/31 00:30:12;;;;;;;11.15;1.55;;;6.00;99.90;;;;;;4894005;29;20037;-62
2022/01/31 00:32:41;;;;;;;16.75;1.45;;;5.90;99.90;;;;;;4892579;29;20524;-64
2022/01/31 00:35:10;;;;;;;16.98;2.00;;;5.90;99.90;;;;;;4893957;29;20536;-62
2022/01/31 00:37:38;;;;;;;12.50;2.37;;;5.90;99.90;;;;;;4877321;29;20067;-65
2022/01/31 00:40:08;;;;;;;12.73;1.15;;;5.90;99.90;;;;;;4893804;29;20064;-60
2022/01/31 00:42:36;;;;;;;8.30;1.88;;;5.90;99.90;;;;;;4894158;29;20048;-59
2022/01/31 00:45:16;;;;;;;9.43;1.38;;;5.90;99.90;;;;;;4893789;29;20053;-59
2022/01/31 00:47:58;;;;;;;11.38;1.55;;;5.90;99.90;;;;;;4893716;29;20525;-60
2022/01/31 00:50:38;;;;;;;13.23;1.67;;;5.90;99.90;;;;;;4909737;29;20040;-59
2022/01/31 00:53:06;;;;;;;20.40;3.88;;;5.90;99.90;;;;;;4899219;29;20053;-60
2022/01/31 00:55:34;;;;;;;13.20;1.88;;;5.90;99.90;;;;;;4892038;29;20055;-59
2022/01/31 00:58:02;;;;;;;13.60;1.65;;;5.90;99.90;;;;;;4893277;29;20063;-59
2022/01/31 01:00:30;;;;;;;16.23;1.50;;;6.00;99.90;;;;;;4893499;29;20485;-59
2022/01/31 01:02:58;;;;;;;16.13;1.95;;;6.00;99.90;;;;;;4889353;29;20416;-59
2022/01/31 01:05:27;;;;;;;6.93;1.58;;;6.00;99.90;;;;;;4889206;29;20056;-59
2022/01/31 01:07:54;;;;;;;19.45;2.55;;;6.00;99.90;;;;;;4892326;29;20408;-58
2022/01/31 01:10:22;;;;;;;11.70;1.73;;;6.00;99.90;;;;;;4893284;29;20059;-59
2022/01/31 01:12:50;;;;;;;17.10;2.00;;;6.00;99.90;;;;;;4891978;29;20056;-62
2022/01/31 01:15:19;;;;;;;18.98;2.60;;;6.00;99.90;;;;;;4891706;29;20067;-60
2022/01/31 01:17:47;;;;;;;11.02;1.60;;;5.90;99.90;;;;;;4892791;29;20049;-61
2022/01/31 01:20:16;;;;;;;16.10;3.08;;;5.90;99.90;;;;;;4893254;29;20065;-59
2022/01/31 01:22:45;;;;;;;12.48;1.73;;;5.90;99.90;;;;;;4892072;29;20341;-66
2022/01/31 01:25:14;;;;;;;16.00;1.77;;;5.90;99.90;;;;;;4892148;29;20044;-64
2022/01/31 01:27:46;;;;;;;13.20;2.42;;;6.00;99.90;;;;;;4891589;29;20048;-61
2022/01/31 01:30:14;;;;;;;21.33;3.28;;;6.00;99.90;;;;;;4892188;29;20045;-61
2022/01/31 01:32:59;;;;;;;15.00;2.03;;;6.10;99.90;;;;;;4891545;29;20064;-60
2022/01/31 01:35:34;;;;;;;7.38;1.88;;;6.10;99.90;;;;;;4891947;29;20418;-61
2022/01/31 01:38:07;;;;;;;12.43;1.98;;;6.10;99.90;;;;;;4892100;29;20049;-60
2022/01/31 01:40:39;;;;;;;11.77;1.70;;;6.10;99.90;;;;;;4876564;29;20056;-60
2022/01/31 01:43:11;;;;;;;15.15;1.88;;;6.10;99.90;;;;;;4876849;29;20064;-60
2022/01/31 01:45:41;;;;;;;10.60;1.50;;;6.10;99.90;;;;;;4891749;29;20240;-61
2022/01/31 01:48:11;;;;;;;8.68;1.75;;;6.00;99.90;;;;;;4876543;29;20303;-60
2022/01/31 01:50:40;;;;;;;11.70;1.45;;;6.00;99.90;;;;;;4891784;29;20060;-58
2022/01/31 01:53:09;;;;;;;11.90;2.08;;;6.00;99.90;;;;;;4892328;29;20053;-59
2022/01/31 01:55:38;;;;;;;14.48;1.05;;;6.00;99.90;;;;;;4891842;29;20048;-64
2022/01/31 01:58:14;;;;;;;13.93;2.20;;;6.10;99.90;;;;;;4891539;29;20053;-62
2022/01/31 02:00:59;;;;;;;13.32;1.95;;;6.10;99.90;;;;;;4893793;29;20410;-59
2022/01/31 02:03:49;;;;;;;6.97;1.25;;;6.20;99.90;;;;;;4895001;29;20052;-60
2022/01/31 02:06:18;;;;;;;6.80;1.42;;;6.30;99.90;;;;;;4879571;29;20058;-60
2022/01/31 02:08:47;;;;;;;8.15;1.73;;;6.30;99.90;;;;;;4895416;29;20048;-60
2022/01/31 02:11:26;;;;;;;13.45;1.85;;;6.20;99.90;;;;;;4881188;29;20049;-59
2022/01/31 02:13:56;;;;;;;15.30;1.90;;;6.20;99.90;;;;;;4895123;29;20049;-59
2022/01/31 02:16:42;;;;;;;20.05;3.45;;;6.20;99.90;;;;;;4896457;29;20036;-59
2022/01/31 02:19:21;;;;;;;11.55;1.75;;;6.20;99.90;;;;;;4894888;29;20056;-59
2022/01/31 02:22:24;;;;;;;15.45;2.50;;;6.20;99.90;;;;;;4887500;29;20067;-62
2022/01/31 02:25:17;;;;;;;13.52;2.58;;;6.30;99.90;;;;;;4895049;29;20056;-59
2022/01/31 02:27:59;;;;;;;11.02;1.88;;;6.30;99.90;;;;;;4895749;29;20052;-59
2022/01/31 02:30:27;;;;;;;4.80;0.80;;;6.30;99.90;;;;;;4897515;29;20055;-63
2022/01/31 02:32:55;;;;;;;16.10;2.08;;;6.30;99.90;;;;;;4912649;29;20048;-67
2022/01/31 02:35:23;;;;;;;12.25;1.95;;;6.30;99.90;;;;;;4897905;29;20044;-65
2022/01/31 02:37:51;;;;;;;20.05;2.40;;;6.30;99.90;;;;;;4898277;29;20075;-65
2022/01/31 02:40:25;;;;;;;10.63;1.58;;;6.20;99.90;;;;;;4882836;29;20497;-64
2022/01/31 02:42:54;;;;;;;14.07;2.05;;;6.00;99.90;;;;;;4897641;29;20504;-64
2022/01/31 02:45:26;;;;;;;13.60;1.70;;;5.80;99.90;;;;;;4899060;29;20053;-63
2022/01/31 02:47:55;;;;;;;6.95;1.20;;;5.70;99.90;;;;;;4916804;29;20488;-63
2022/01/31 02:50:26;;;;;;;8.50;1.52;;;5.60;99.90;;;;;;4900629;29;20044;-64
2022/01/31 02:53:10;;;;;;;8.38;1.30;;;5.30;99.90;;;;;;4916767;29;20048;-64
2022/01/31 02:55:44;;;;;;;6.82;1.30;;;5.20;99.90;;;;;;4916389;29;20056;-64
2022/01/31 02:58:16;;;;;;;6.25;0.93;;;4.90;99.90;;;;;;4916035;29;20043;-63
2022/01/31 03:00:47;;;;;;;16.48;1.85;;;4.70;99.90;;;;;;4916455;29;20052;-64
2022/01/31 03:03:17;;;;;;;11.23;1.00;;;4.60;99.90;;;;;;4916373;29;20048;-63
2022/01/31 03:05:45;;;;;;;8.30;1.20;;;4.60;99.90;;;;;;4916051;29;20149;-64
2022/01/31 03:08:15;;;;;;;11.90;1.23;;;4.50;99.90;;;;;;4916263;29;20052;-63
2022/01/31 03:10:43;;;;;;;5.78;1.05;;;4.50;99.90;;;;;;4916257;29;20071;-63
2022/01/31 03:13:18;;;;;;;14.77;1.77;;;4.50;99.90;;;;;;4916172;29;20052;-65
2022/01/31 03:15:52;;;;;;;11.30;1.95;;;4.50;99.90;;;;;;4917457;29;20055;-64
2022/01/31 03:18:27;;;;;;;10.95;1.55;;;4.50;99.90;;;;;;4917648;29;20052;-65
2022/01/31 03:20:55;;;;;;;12.13;1.65;;;4.50;99.90;;;;;;4917855;29;20044;-66
2022/01/31 03:23:23;;;;;;;9.65;1.20;;;4.60;99.90;;;;;;4917058;29;20052;-59
2022/01/31 03:25:51;;;;;;;16.80;1.83;;;4.70;99.90;;;;;;4917143;29;20052;-59
2022/01/31 03:28:19;;;;;;;9.07;1.52;;;4.70;99.90;;;;;;4915753;29;20059;-60
2022/01/31 03:30:47;;;;;;;8.60;1.38;;;4.60;99.90;;;;;;4916132;29;20063;-60
2022/01/31 03:33:15;;;;;;;9.13;1.40;;;4.50;99.90;;;;;;4917093;29;20053;-59
2022/01/31 03:35:43;;;;;;;11.80;1.45;;;4.40;99.90;;;;;;4915768;29;20055;-59
2022/01/31 03:38:11;;;;;;;15.35;1.70;;;4.40;99.90;;;;;;4915737;29;20052;-61
2022/01/31 03:40:39;;;;;;;18.48;2.38;;;4.40;99.90;;;;;;4915720;29;20051;-60
2022/01/31 03:43:07;;;;;;;20.98;2.55;;;4.90;99.90;;;;;;4915942;29;20056;-59
2022/01/31 03:45:35;;;;;;;18.30;2.17;;;4.30;99.90;;;;;;4915667;29;20051;-60
2022/01/31 03:48:16;;;;;;;48.28;4.38;;;4.30;99.90;;;;;;4915498;29;20052;-60
2022/01/31 03:50:46;;;;;;;21.30;3.33;;;4.30;99.90;;;;;;4915674;29;20130;-59
2022/01/31 03:53:14;;;;;;;25.98;2.72;;;4.30;99.90;;;;;;4915587;29;20040;-60
2022/01/31 03:55:42;;;;;;;22.70;2.20;;;4.30;99.90;;;;;;4915442;29;20068;-61
2022/01/31 03:58:10;;;;;;;17.15;3.38;;;4.30;99.90;;;;;;4915312;29;20055;-64
2022/01/31 04:00:52;;;;;;;19.85;2.50;;;4.30;99.90;;;;;;4915413;29;20059;-59
2022/01/31 04:03:20;;;;;;;28.98;3.25;;;4.30;99.90;;;;;;4916553;29;20041;-59
2022/01/31 04:05:48;;;;;;;35.50;4.15;;;4.40;99.90;;;;;;4916493;29;20131;-59
2022/01/31 04:08:16;;;;;;;20.00;2.50;;;4.40;99.90;;;;;;4916324;29;20055;-58
2022/01/31 04:10:44;;;;;;;16.55;2.28;;;4.40;99.90;;;;;;4916312;29;20052;-58
2022/01/31 04:13:16;;;;;;;21.42;3.15;;;4.40;99.90;;;;;;4916416;29;20113;-59
2022/01/31 04:15:44;;;;;;;19.25;2.50;;;4.40;99.90;;;;;;4916048;29;20073;-59
2022/01/31 04:18:13;;;;;;;22.45;2.63;;;4.50;99.90;;;;;;4916506;29;20051;-60
2022/01/31 04:20:41;;;;;;;13.40;2.47;;;4.50;99.90;;;;;;4916124;29;20052;-59
2022/01/31 04:23:17;;;;;;;13.45;2.17;;;4.50;99.90;;;;;;4915735;29;20052;-59
2022/01/31 04:25:54;;;;;;;14.50;2.25;;;4.60;99.90;;;;;;4916135;29;20990;-59
2022/01/31 04:28:30;;;;;;;16.70;3.97;;;4.70;99.90;;;;;;4915771;29;20055;-66
2022/01/31 04:31:11;;;;;;;16.83;2.28;;;4.80;99.90;;;;;;4914786;29;20412;-63
2022/01/31 04:33:40;;;;;;;16.90;1.40;;;4.90;99.90;;;;;;4916057;29;20048;-64
2022/01/31 04:36:15;;;;;;;13.38;1.77;;;4.90;99.90;;;;;;4899469;29;20063;-65
2022/01/31 04:38:44;;;;;;;12.88;1.67;;;4.90;99.90;;;;;;4915629;29;20044;-65
2022/01/31 04:41:13;;;;;;;14.95;2.88;;;4.90;99.90;;;;;;4915947;29;20048;-66
2022/01/31 04:43:42;;;;;;;14.68;3.05;;;4.80;99.90;;;;;;4915885;29;20052;-66
2022/01/31 04:46:11;;;;;;;28.33;2.55;;;4.70;99.90;;;;;;4915847;29;20044;-63
2022/01/31 04:48:39;;;;;;;21.55;2.45;;;4.60;99.90;;;;;;4915587;29;20048;-65
2022/01/31 04:51:07;;;;;;;8.68;1.60;;;4.60;99.90;;;;;;4914662;29;20044;-63
2022/01/31 04:53:35;;;;;;;14.88;3.00;;;4.50;99.90;;;;;;4915771;29;20051;-64
2022/01/31 04:56:03;;;;;;;13.85;1.73;;;4.50;99.90;;;;;;4915671;29;20044;-63
2022/01/31 04:58:32;;;;;;;17.17;2.53;;;4.40;99.90;;;;;;4915555;29;20044;-62
2022/01/31 05:01:00;;;;;;;13.90;1.88;;;4.40;99.90;;;;;;4915501;29;20059;-60
2022/01/31 05:03:30;;;;;;;11.27;1.73;;;4.40;99.90;;;;;;4915629;29;20380;-59
2022/01/31 05:05:59;;;;;;;12.70;1.30;;;4.40;99.90;;;;;;4915545;29;20064;-63
2022/01/31 05:08:29;;;;;;;16.92;1.90;;;4.40;99.90;;;;;;4915541;29;20040;-60
2022/01/31 05:10:57;;;;;;;10.32;2.35;;;4.30;99.90;;;;;;4915483;29;20045;-62
2022/01/31 05:13:25;;;;;;;10.07;2.13;;;4.30;99.90;;;;;;4915246;29;20063;-60
2022/01/31 05:15:53;;;;;;;11.35;1.45;;;4.30;99.90;;;;;;4915388;29;20037;-60
2022/01/31 05:18:21;;;;;;;16.65;2.47;;;4.30;99.90;;;;;;4915437;29;20055;-63
2022/01/31 05:20:49;;;;;;;13.25;1.85;;;4.20;99.90;;;;;;4915392;29;20420;-66
2022/01/31 05:23:17;;;;;;;14.63;2.83;;;4.20;99.90;;;;;;4915372;29;20040;-67
2022/01/31 05:25:45;;;;;;;10.05;1.63;;;4.20;99.90;;;;;;4915224;29;20532;-66
2022/01/31 05:28:13;;;;;;;15.40;1.60;;;4.10;99.90;;;;;;4915212;29;20060;-67
2022/01/31 05:30:41;;;;;;;18.70;1.70;;;4.20;99.90;;;;;;4915193;29;20055;-68
2022/01/31 05:33:09;;;;;;;13.63;1.27;;;4.10;99.90;;;;;;4915510;29;20067;-67
2022/01/31 05:35:37;;;;;;;7.93;1.23;;;4.20;99.90;;;;;;4917190;29;20405;-67
2022/01/31 05:38:04;;;;;;;15.13;2.38;;;4.30;99.90;;;;;;4919063;29;20047;-66
2022/01/31 05:40:32;;;;;;;11.63;1.85;;;4.30;99.90;;;;;;4918923;29;20048;-66
2022/01/31 05:43:00;;;;;;;11.02;1.60;;;4.30;99.90;;;;;;4919022;29;20049;-66
2022/01/31 05:45:28;;;;;;;15.82;2.05;;;4.30;99.90;;;;;;4919315;29;20036;-66
2022/01/31 05:47:57;;;;;;;13.85;2.13;;;4.30;99.90;;;;;;4907683;29;20052;-64
2022/01/31 05:50:28;;;;;;;12.25;2.45;;;4.20;99.90;;;;;;4896866;29;20401;-63
2022/01/31 05:52:56;;;;;;;14.35;1.65;;;4.00;99.90;;;;;;4896830;29;20048;-66
2022/01/31 05:55:24;;;;;;;9.43;1.67;;;4.00;99.90;;;;;;4898022;29;20071;-66
2022/01/31 05:57:52;;;;;;;22.00;2.58;;;3.90;99.90;;;;;;4897480;29;20081;-61
2022/01/31 06:00:22;;;;;;;29.90;3.35;;;3.90;99.90;;;;;;4896623;29;20383;-60
2022/01/31 06:02:59;;;;;;;10.40;2.00;;;3.90;99.90;;;;;;4895964;29;20072;-64
2022/01/31 06:05:28;;;;;;;17.02;2.05;;;3.90;99.90;;;;;;4893327;29;20658;-59
2022/01/31 06:07:56;;;;;;;21.90;2.72;;;4.00;99.90;;;;;;4893424;29;20052;-67
2022/01/31 06:10:24;;;;;;;13.65;2.50;;;4.00;99.90;;;;;;4894553;29;20055;-63
2022/01/31 06:12:53;;;;;;;16.05;2.13;;;4.00;99.90;;;;;;4892996;29;20045;-62
2022/01/31 06:15:21;;;;;;;19.95;2.83;;;4.10;99.90;;;;;;4891639;29;20059;-66
2022/01/31 06:17:48;;;;;;;13.20;1.67;;;4.20;99.90;;;;;;4895306;29;20056;-59
2022/01/31 06:20:17;;;;;;;14.00;2.40;;;4.20;99.90;;;;;;4896265;29;20056;-60
2022/01/31 06:22:47;;;;;;;19.40;1.77;;;4.10;99.90;;;;;;4896228;29;20045;-59
2022/01/31 06:25:15;;;;;;;14.80;1.95;;;4.10;99.90;;;;;;4896192;29;20130;-62
2022/01/31 06:27:46;;;;;;;11.57;1.50;;;4.10;99.90;;;;;;4894685;29;20075;-60
2022/01/31 06:30:15;;;;;;;22.35;3.22;;;4.10;99.90;;;;;;4894965;29;20044;-62
2022/01/31 06:32:46;;;;;;;17.70;2.22;;;4.10;99.90;;;;;;4894869;29;20048;-60
2022/01/31 06:35:14;;;;;;;9.85;2.40;;;4.20;99.90;;;;;;4896298;29;20057;-59
2022/01/31 06:37:42;;;;;;;17.40;1.95;;;4.10;99.90;;;;;;4892816;29;20068;-60
2022/01/31 06:40:10;;;;;;;9.70;2.22;;;4.10;99.90;;;;;;4892946;29;20053;-59
2022/01/31 06:42:38;;;;;;;26.33;4.20;;;4.10;99.90;;;;;;4896084;29;20052;-62
2022/01/31 06:45:07;;;;;;;11.15;2.22;;;4.10;99.90;;;;;;4895993;29;20059;-59
2022/01/31 06:47:35;;;;;;;16.33;1.75;;;4.10;99.90;;;;;;4894198;29;20051;-58
2022/01/31 06:50:06;;;;;;;15.23;1.70;;;4.00;99.90;;;;;;4911173;29;20658;-59
2022/01/31 06:52:36;;;;;;;17.55;2.42;;;4.00;99.90;;;;;;4910164;29;20065;-59
2022/01/31 06:55:06;;;;;;;;;;;3.90;99.90;;;;;;4912117;29;20040;-62
2022/01/31 06:57:35;;;;;;;14.25;2.53;;;3.90;99.90;;;;;;4911183;29;20402;-65
2022/01/31 07:00:06;;;;;;;13.95;1.85;;;3.90;99.90;;;;;;4913440;29;20051;-59
2022/01/31 07:02:34;;;;;;;11.18;2.97;;;4.00;99.90;;;;;;4909718;29;20068;-60
2022/01/31 07:05:02;;;;;;;12.70;2.08;;;4.00;99.90;;;;;;4910092;29;20048;-62
2022/01/31 07:07:32;;;;;;;18.27;2.65;;;4.10;99.90;;;;;;4909710;29;20057;-61
2022/01/31 07:10:01;;;;;;;14.73;2.95;;;4.10;99.90;;;;;;4894176;29;20516;-60
2022/01/31 07:12:33;;;;;;;23.17;2.72;;;4.10;99.90;;;;;;4894132;29;20429;-60
2022/01/31 07:15:02;;;;;;;18.58;2.38;;;4.20;99.90;;;;;;4894462;29;20425;-62
2022/01/31 07:17:30;;;;;;;12.13;2.45;;;4.20;99.90;;;;;;4892022;29;20052;-60
2022/01/31 07:19:58;;;;;;;24.98;2.65;;;4.20;99.90;;;;;;4892864;29;20056;-59
2022/01/31 07:22:33;;;;;;;9.68;1.48;;;4.10;99.90;;;;;;4891622;29;20446;-59
2022/01/31 07:25:04;;;;;;;10.25;2.10;;;4.20;99.90;;;;;;4892152;29;20055;-60
2022/01/31 07:27:32;;;;;;;17.80;2.28;;;4.10;99.90;;;;;;4894419;29;20060;-59
2022/01/31 07:30:01;;;;;;;13.02;1.80;;;4.10;99.90;;;;;;4895241;29;20079;-59
2022/01/31 07:32:29;;;;;;;18.40;2.40;;;4.20;99.90;;;;;;4894938;29;20049;-62
2022/01/31 07:34:58;;;;;;;17.85;3.72;;;4.20;99.90;;;;;;4895319;29;20040;-59
2022/01/31 07:37:26;;;;;;;17.80;1.83;;;4.30;99.90;;;;;;4891918;29;20504;-59
2022/01/31 07:39:54;;;;;;;17.25;2.20;;;4.30;99.90;;;;;;4891672;29;20085;-60
2022/01/31 07:42:22;;;;;;;23.98;2.45;;;4.30;99.90;;;;;;4893783;29;20059;-62
2022/01/31 07:44:53;;;;;;;17.95;2.60;;;4.30;99.90;;;;;;4878331;29;20437;-63
2022/01/31 07:47:20;;;;;;;;;;;4.30;99.90;;;;;;4895048;29;20072;-60
2022/01/31 07:49:51;;;;;;;12.48;2.35;;;4.40;99.90;;;;;;4894336;29;19931;-63
2022/01/31 07:52:19;;;;;;;16.05;1.98;;;4.40;99.90;;;;;;4894560;29;20049;-63
2022/01/31 07:54:46;;;;;;;3.72;0.73;;;4.50;99.90;;;;;;4893427;29;20059;-65
2022/01/31 07:57:16;;;;;;;5.65;1.42;;;4.60;99.90;;;;;;4892915;29;20378;-61
2022/01/31 08:00:06;;;;;;;11.63;1.65;;;4.60;99.90;;;;;;4893553;29;20049;-62
2022/01/31 08:02:41;;;;;;;8.27;1.52;;;4.70;99.90;;;;;;4891582;29;20421;-63
2022/01/31 08:05:10;;;;;;;12.73;1.30;;;4.70;99.90;;;;;;4891694;29;20436;-66
2022/01/31 08:07:38;;;;;;;7.05;1.52;;;4.70;99.90;;;;;;4893173;29;20049;-67
2022/01/31 08:10:07;;;;;;;13.55;1.73;;;4.70;99.90;;;;;;4894710;29;20078;-68
2022/01/31 08:12:36;;;;;;;10.50;0.85;;;4.80;99.90;;;;;;4890916;29;20049;-67
2022/01/31 08:15:07;;;;;;;18.83;1.73;;;4.80;99.90;;;;;;4891068;29;20511;-66
2022/01/31 08:17:35;;;;;;;13.68;1.67;;;4.80;99.90;;;;;;4893783;29;20049;-67
2022/01/31 08:20:04;;;;;;;14.45;1.70;;;4.80;99.90;;;;;;4893226;29;20056;-66
2022/01/31 08:22:31;;;;;;;9.65;1.40;;;4.80;99.90;;;;;;4893740;29;20047;-66
2022/01/31 08:24:59;;;;;;;12.13;1.67;;;4.80;99.90;;;;;;4894251;29;20044;-66
2022/01/31 08:27:27;;;;;;;9.93;1.67;;;4.80;99.90;;;;;;4893918;29;20063;-66
2022/01/31 08:30:05;;;;;;;11.82;1.85;;;4.80;99.90;;;;;;4894942;29;20345;-63
2022/01/31 08:32:43;;;;;;;10.15;1.23;;;4.80;99.90;;;;;;4894425;29;20057;-61
2022/01/31 08:37:59;;;;;;;13.35;1.80;;;4.80;99.90;;;;;;4893777;29;20040;-65
2022/01/31 08:40:27;;;;;;;9.02;1.67;;;4.80;99.90;;;;;;4893924;29;20052;-66
2022/01/31 08:42:55;;;;;;;14.52;3.17;;;4.70;99.90;;;;;;4893745;29;20044;-65
2022/01/31 08:45:22;;;;;;;14.30;1.63;;;4.70;99.90;;;;;;4893610;29;20532;-65
2022/01/31 08:47:50;;;;;;;12.13;2.00;;;4.60;99.90;;;;;;4893641;29;20056;-60
2022/01/31 08:50:19;;;;;;;12.02;1.73;;;4.60;99.90;;;;;;4906328;29;20059;-64
2022/01/31 08:52:46;;;;;;;16.13;1.90;;;4.50;99.90;;;;;;4911446;29;20052;-65
2022/01/31 08:55:20;;;;;;;7.97;1.27;;;4.50;99.90;;;;;;4912706;29;20375;-66
2022/01/31 08:57:54;;;;;;;11.75;2.42;;;4.50;99.90;;;;;;4912261;29;20052;-63
2022/01/31 09:00:33;;;;;;;13.77;2.92;;;4.50;99.90;;;;;;4911163;29;20040;-58
2022/01/31 09:03:21;;;;;;;26.40;5.43;;;4.60;99.90;;;;;;4912036;29;20052;-59
2022/01/31 09:05:49;;;;;;;12.13;1.10;;;4.70;99.90;;;;;;4895522;29;20174;-59
2022/01/31 09:08:17;;;;;;;16.10;1.92;;;4.80;99.90;;;;;;4893400;29;20059;-59
2022/01/31 09:10:45;;;;;;;7.28;1.90;;;4.90;99.90;;;;;;4893241;29;20401;-59
2022/01/31 09:13:14;;;;;;;12.90;1.40;;;5.00;99.90;;;;;;4893114;29;20048;-59
2022/01/31 09:15:43;;;;;;;6.07;0.98;;;5.00;99.90;;;;;;4893126;29;20529;-59
2022/01/31 09:18:11;;;;;;;26.70;3.13;;;5.10;99.90;;;;;;4891868;29;20057;-59
2022/01/31 09:20:39;;;;;;;12.00;1.55;;;5.10;99.90;;;;;;4892398;29;20485;-60
2022/01/31 09:23:07;;;;;;;14.75;1.77;;;5.10;99.90;;;;;;4893141;29;20056;-59
2022/01/31 09:25:35;;;;;;;17.30;2.20;;;5.10;99.90;;;;;;4893396;29;20044;-62
2022/01/31 09:28:03;;;;;;;10.20;1.50;;;5.10;99.90;;;;;;4892781;29;20056;-60
2022/01/31 09:30:31;;;;;;;18.75;2.75;;;5.10;99.90;;;;;;4892928;29;20060;-66
2022/01/31 09:32:59;;;;;;;16.40;1.88;;;5.10;99.90;;;;;;4889622;29;20064;-67
2022/01/31 09:35:27;;;;;;;16.77;2.55;;;5.20;99.90;;;;;;4888892;29;20045;-62
2022/01/31 09:37:55;;;;;;;10.85;1.55;;;5.20;99.90;;;;;;4890007;29;20444;-67
2022/01/31 09:40:23;;;;;;;2.75;0.80;;;5.20;99.90;;;;;;4892127;29;20060;-66
2022/01/31 09:48:38;;;;;;;13.93;1.63;;;5.10;99.90;;;;;;4892858;29;20071;-66
2022/01/31 09:51:13;;;;;;;6.32;1.33;;;5.10;99.90;;;;;;4893116;29;20206;-66
2022/01/31 09:53:48;;;;;;;8.35;1.17;;;5.10;99.90;;;;;;4891832;29;20071;-66
2022/01/31 09:56:21;;;;;;;14.32;1.95;;;5.20;99.90;;;;;;4893136;29;20053;-65
2022/01/31 09:58:51;;;;;;;13.32;1.52;;;5.20;99.90;;;;;;4892938;29;20397;-60
2022/01/31 10:01:27;;;;;;;16.85;2.72;;;5.30;99.90;;;;;;4893079;29;20052;-66
2022/01/31 10:04:04;;;;;;;11.15;1.08;;;5.30;99.90;;;;;;4892756;29;20049;-63
2022/01/31 10:06:39;;;;;;;17.88;2.13;;;5.40;99.90;;;;;;4876156;29;20531;-65
2022/01/31 10:09:08;;;;;;;5.47;1.08;;;5.50;99.90;;;;;;4892514;29;20045;-61
2022/01/31 10:11:41;;;;;;;22.08;3.63;;;5.60;99.90;;;;;;4892782;29;20047;-62
2022/01/31 10:17:24;;;;;;;6.18;1.70;;;5.90;99.90;;;;;;4893121;29;20064;-65
2022/01/31 10:20:18;;;;;;;8.65;2.08;;;6.10;99.90;;;;;;4892830;29;20059;-64
2022/01/31 10:22:46;;;;;;;27.73;3.38;;;6.10;99.90;;;;;;4895934;29;20052;-61
2022/01/31 10:25:16;;;;;;;14.10;1.63;;;6.10;99.90;;;;;;4896349;29;20060;-59
2022/01/31 10:28:18;;;;;;;14.30;1.90;;;6.10;99.90;;;;;;4895769;29;20053;-60
2022/01/31 10:30:51;;;;;;;21.02;2.97;;;6.10;99.90;;;;;;4896030;29;20528;-60
2022/01/31 10:33:21;;;;;;;16.45;1.92;;;6.00;99.90;;;;;;4895835;29;20059;-62
2022/01/31 10:35:49;;;;;;;17.48;2.85;;;6.00;99.90;;;;;;4896052;29;20053;-62
2022/01/31 10:38:30;;;;;;;13.80;2.03;;;6.00;99.90;;;;;;4895823;29;20404;-60
2022/01/31 10:44:55;;;;;;;15.07;1.75;;;5.90;99.90;;;;;;4895862;29;20420;-61
2022/01/31 10:52:04;;;;;;;15.10;2.75;;;6.00;99.90;;;;;;4896062;29;20052;-59
2022/01/31 10:57:04;;;;;;;14.80;2.13;;;6.10;99.90;;;;;;4914668;29;20402;-66
2022/01/31 10:59:40;;;;;;;15.82;3.53;;;6.10;99.90;;;;;;4895600;29;20060;-65
2022/01/31 11:02:19;;;;;;;18.27;3.65;;;6.10;99.90;;;;;;4894274;29;20061;-64
2022/01/31 11:04:48;;;;;;;18.55;2.05;;;6.20;99.90;;;;;;4896021;29;20048;-66
2022/01/31 11:07:18;;;;;;;15.60;2.13;;;6.30;99.90;;;;;;4895376;29;20508;-66
2022/01/31 11:09:48;;;;;;;14.60;1.60;;;6.30;99.90;;;;;;4895452;29;20052;-65
2022/01/31 11:12:16;;;;;;;;;;;6.40;99.90;;;;;;4895994;29;20060;-65
2022/01/31 11:14:48;;;;;;;17.77;1.65;;;6.50;99.80;;;;;;4895410;29;19938;-66
2022/01/31 11:17:18;;;;;;;10.40;1.73;;;6.50;99.90;;;;;;4895531;29;20734;-64
2022/01/31 11:19:55;;;;;;;13.52;2.38;;;6.60;99.90;;;;;;4895370;29;20048;-63
2022/01/31 11:22:30;;;;;;;15.45;2.15;;;6.70;99.60;;;;;;4895022;29;20071;-65
2022/01/31 11:25:20;;;;;;;15.82;1.75;;;6.80;99.10;;;;;;4892773;29;20048;-64
2022/01/31 11:27:53;;;;;;;8.10;1.77;;;7.00;99.20;;;;;;4891452;29;20048;-59
2022/01/31 11:30:22;;;;;;;13.20;1.30;;;7.10;97.60;;;;;;4893079;29;20045;-59
2022/01/31 11:32:51;;;;;;;12.40;1.98;;;7.20;96.60;;;;;;4893648;29;20057;-64
2022/01/31 11:35:21;;;;;;;14.02;1.52;;;7.30;97.00;;;;;;4895300;29;20052;-64
2022/01/31 11:37:50;;;;;;;12.63;2.17;;;7.40;96.60;;;;;;4894769;29;20052;-65
2022/01/31 11:40:20;;;;;;;17.30;1.52;;;7.50;96.30;;;;;;4894998;29;20045;-63
2022/01/31 11:42:50;;;;;;;8.55;1.30;;;7.60;95.80;;;;;;4894804;29;20056;-64
2022/01/31 11:45:26;;;;;;;12.82;2.28;;;7.70;94.40;;;;;;4894573;29;20052;-66
2022/01/31 11:47:57;;;;;;;10.77;1.30;;;7.70;94.40;;;;;;4894758;29;20412;-63
2022/01/31 11:50:28;;;;;;;17.40;2.20;;;7.70;94.60;;;;;;4894981;29;20052;-64
2022/01/31 11:52:58;;;;;;;10.75;1.58;;;7.70;94.70;;;;;;4892964;29;20056;-59
2022/01/31 11:55:35;;;;;;;9.20;1.45;;;7.80;96.30;;;;;;4894384;29;20048;-60
2022/01/31 11:58:15;;;;;;;11.07;1.38;;;7.90;95.30;;;;;;4894589;29;20064;-60
2022/01/31 12:00:44;;;;;;;22.40;2.22;;;7.90;94.00;;;;;;4892988;29;20048;-61
2022/01/31 12:03:18;;;;;;;9.07;1.45;;;7.90;93.50;;;;;;4894257;29;20405;-65
2022/01/31 12:05:48;;;;;;;12.77;1.95;;;7.80;94.00;;;;;;4894649;29;20061;-64
2022/01/31 12:08:21;;;;;;;15.38;1.92;;;7.70;94.70;;;;;;4894040;29;20071;-61
2022/01/31 12:10:57;;;;;;;18.60;2.03;;;7.70;94.90;;;;;;4894122;29;20044;-63
2022/01/31 12:13:47;;;;;;;11.25;1.50;;;7.60;95.50;;;;;;4894164;29;20059;-64
2022/01/31 12:22:00;;;;;;;14.85;1.50;;;7.50;96.10;;;;;;4894414;29;20048;-65
2022/01/31 12:24:48;;;;;;;25.40;2.78;;;7.50;96.50;;;;;;4891038;29;20052;-65
2022/01/31 12:27:20;;;;;;;24.15;2.90;;;7.50;96.80;;;;;;4890605;29;20048;-66
2022/01/31 12:29:52;;;;;;;11.38;1.75;;;7.50;97.00;;;;;;4893946;29;20049;-65
2022/01/31 12:32:22;;;;;;;18.33;1.55;;;7.40;96.40;;;;;;4893620;29;20064;-66
2022/01/31 12:34:55;;;;;;;14.82;3.33;;;7.30;96.60;;;;;;4893851;29;20049;-66
2022/01/31 12:37:51;;;;;;;22.70;4.13;;;7.30;97.40;;;;;;4893599;29;20052;-60
2022/01/31 12:40:30;;;;;;;18.83;3.03;;;7.40;98.40;;;;;;4891274;29;20044;-64
2022/01/31 12:45:39;;;;;;;16.30;1.88;;;7.90;98.70;;;;;;4893105;29;20072;-65
2022/01/31 12:48:10;;;;;;;17.65;2.22;;;8.00;99.50;;;;;;4893492;29;20048;-65
2022/01/31 12:50:50;;;;;;;19.25;2.00;;;8.40;99.90;;;;;;4893790;29;20056;-65
2022/01/31 12:53:26;;;;;;;;;;;8.70;99.60;;;;;;4898718;29;20064;-65
2022/01/31 12:56:29;;;;;;;15.48;2.03;;;8.90;98.80;;;;;;4912508;29;19927;-65
2022/01/31 12:59:17;;;;;;;18.02;2.90;;;9.10;98.30;;;;;;4912276;29;20051;-64
2022/01/31 13:01:48;;;;;;;20.38;2.53;;;9.30;99.00;;;;;;4912209;29;20052;-64
2022/01/31 13:04:21;;;;;;;15.38;2.05;;;9.70;99.90;;;;;;4912045;29;20416;-64
2022/01/31 13:06:49;;;;;;;11.35;2.17;;;10.20;97.00;;;;;;4907367;29;20052;-63
2022/01/31 13:09:24;;;;;;;20.60;2.83;;;10.20;94.50;;;;;;4893070;29;20048;-66
2022/01/31 13:12:06;;;;;;;10.10;2.08;;;10.00;95.90;;;;;;4893261;29;20482;-66
2022/01/31 13:14:44;;;;;;;18.15;2.80;;;9.80;95.30;;;;;;4893327;29;20044;-62
2022/01/31 13:17:24;;;;;;;11.07;1.60;;;9.40;96.70;;;;;;4893384;29;20041;-64
2022/01/31 13:19:58;;;;;;;20.20;2.55;;;9.20;98.50;;;;;;4893497;29;20052;-64
2022/01/31 13:22:36;;;;;;;21.52;2.08;;;9.00;98.50;;;;;;4893423;29;20048;-64
2022/01/31 13:25:07;;;;;;;18.25;3.97;;;8.80;98.50;;;;;;4893062;29;20059;-63
2022/01/31 13:27:55;;;;;;;15.82;2.15;;;8.50;98.80;;;;;;4892716;29;20053;-65
2022/01/31 13:30:26;;;;;;;10.13;1.50;;;8.20;99.10;;;;;;4893209;29;20053;-64
2022/01/31 13:32:54;;;;;;;14.63;2.13;;;8.00;99.70;;;;;;4897510;29;20044;-64
2022/01/31 13:35:28;;;;;;;10.73;1.95;;;7.80;99.90;;;;;;4899609;29;20045;-64
2022/01/31 13:37:59;;;;;;;6.68;1.67;;;7.70;99.90;;;;;;4903107;29;20056;-65
2022/01/31 13:40:35;;;;;;;8.88;2.30;;;7.70;99.90;;;;;;4893281;29;20044;-65
2022/01/31 13:43:08;;;;;;;6.10;1.25;;;7.70;99.90;;;;;;4893010;29;20052;-59